createdAt,value
2022-09-07T00:01:22.655Z,85.54
2022-09-07T00:04:27.367Z,86.25
2022-09-07T00:07:32.425Z,86.01
2022-09-07T00:10:37.393Z,85.59
2022-09-07T00:13:43.593Z,85.51
2022-09-07T00:16:48.470Z,82.90
2022-09-07T00:19:53.665Z,83.08
2022-09-07T00:22:58.504Z,82.66
2022-09-07T00:26:07.958Z,82.84
2022-09-07T00:29:12.594Z,82.11
2022-09-07T00:32:17.457Z,81.54
2022-09-07T00:35:22.066Z,81.09
2022-09-07T00:38:27.020Z,80.56
2022-09-07T00:41:32.218Z,80.83
2022-09-07T00:44:45.959Z,80.74
2022-09-07T00:48:24.879Z,79.96
2022-09-07T00:51:49.971Z,78.82
2022-09-07T00:55:00.190Z,77.58
2022-09-07T00:58:08.738Z,76.89
2022-09-07T01:01:13.821Z,77.41
2022-09-07T01:04:19.532Z,75.96
2022-09-07T01:07:24.653Z,74.46
2022-09-07T01:10:34.445Z,74.71
2022-09-07T01:13:41.916Z,75.13
2022-09-07T01:16:55.263Z,74.53
2022-09-07T06:44:39.690Z,47.96
2022-09-07T06:48:44.756Z,49.94
2022-09-07T07:01:20.226Z,50.21
2022-09-07T07:08:58.064Z,48.59
2022-09-07T09:06:27.201Z,55.79
2022-09-07T10:40:33.051Z,57.91
2022-09-07T10:43:51.025Z,58.00
2022-09-07T10:47:10.134Z,58.63
2022-09-07T10:50:49.865Z,59.74
2022-09-07T10:54:36.249Z,59.88
2022-09-07T10:57:59.702Z,59.53
2022-09-07T11:01:55.485Z,59.69
2022-09-07T11:05:36.081Z,60.10
2022-09-07T12:27:56.675Z,61.44
2022-09-07T12:31:57.681Z,61.89
2022-09-07T12:35:08.521Z,61.31
2022-09-07T12:38:22.012Z,61.67
2022-09-07T12:41:47.400Z,61.15
2022-09-07T12:45:49.200Z,60.86
2022-09-07T12:49:09.185Z,61.85
2022-09-07T12:52:35.476Z,61.57
2022-09-07T12:59:56.017Z,61.78
2022-09-07T13:03:49.504Z,61.76
2022-09-07T13:07:09.872Z,61.32
2022-09-07T13:10:38.137Z,61.78
2022-09-07T13:19:52.107Z,62.56
2022-09-07T13:22:58.602Z,62.25
2022-09-07T13:26:05.413Z,62.90
2022-09-07T13:29:17.994Z,63.61
2022-09-07T13:36:02.275Z,65.26
2022-09-07T13:39:10.500Z,64.71
2022-09-07T13:42:33.371Z,66.45
2022-09-07T13:45:56.463Z,66.67
2022-09-07T13:49:32.077Z,67.67
2022-09-07T13:53:01.927Z,64.73
2022-09-07T13:56:47.412Z,66.41
2022-09-07T13:59:53.455Z,67.38
2022-09-07T14:03:07.516Z,67.18
2022-09-07T14:06:30.802Z,67.74
2022-09-07T14:09:36.275Z,67.02
2022-09-07T14:12:54.477Z,69.68
2022-09-07T14:15:59.330Z,68.12
2022-09-07T14:19:12.205Z,67.94
2022-09-07T14:22:21.420Z,68.49
2022-09-07T14:25:29.530Z,68.32
2022-09-07T14:28:39.116Z,68.57
2022-09-07T14:31:45.731Z,68.28
2022-09-07T14:34:53.459Z,68.97
2022-09-07T14:39:03.928Z,69.12
2022-09-07T14:41:52.326Z,70.34
2022-09-07T14:45:38.239Z,71.82
2022-09-07T14:48:50.187Z,71.51
2022-09-07T14:52:05.291Z,72.49
2022-09-07T14:55:32.270Z,73.52
2022-09-07T14:58:37.219Z,74.89
2022-09-07T15:02:12.827Z,74.82
2022-09-07T15:05:29.686Z,74.62
2022-09-07T15:08:44.804Z,77.14
2022-09-07T15:12:04.996Z,74.59
2022-09-07T15:15:27.772Z,73.53
2022-09-07T15:18:47.803Z,74.25
2022-09-07T15:21:52.726Z,73.03
2022-09-07T15:24:57.756Z,74.49
2022-09-07T15:28:02.856Z,75.42
2022-09-07T15:34:40.529Z,76.76
2022-09-07T15:38:02.935Z,76.88
2022-09-07T15:41:27.796Z,75.71
2022-09-07T15:44:47.126Z,75.29
2022-09-07T15:47:55.295Z,76.11
2022-09-07T16:11:35.185Z,75.86
2022-09-07T16:15:18.747Z,76.13
2022-09-07T16:18:31.210Z,77.68
2022-09-07T16:21:48.510Z,78.46
2022-09-07T16:25:02.434Z,77.08
2022-09-07T16:28:31.874Z,76.63
2022-09-07T16:35:12.585Z,76.99
2022-09-07T16:38:44.448Z,77.46
2022-09-07T16:42:10.298Z,77.42
2022-09-07T16:52:46.016Z,78.13
2022-09-07T16:56:09.776Z,79.22
2022-09-07T16:59:30.759Z,80.16
2022-09-07T17:02:37.477Z,80.77
2022-09-07T17:05:44.357Z,80.31
2022-09-07T17:08:54.940Z,80.51
2022-09-07T17:12:01.628Z,79.18
2022-09-07T17:15:09.985Z,78.92
2022-09-07T17:18:17.922Z,78.57
2022-09-07T17:21:27.292Z,78.36
2022-09-07T17:24:35.026Z,79.17
2022-09-07T17:28:10.875Z,79.17
2022-09-07T17:35:38.083Z,78.85
2022-09-07T17:45:54.553Z,82.16
2022-09-07T17:49:02.371Z,82.61
2022-09-07T17:52:07.144Z,82.38
2022-09-07T17:55:12.013Z,82.65
2022-09-07T17:58:17.181Z,82.33
2022-09-07T18:01:25.624Z,83.10
2022-09-07T18:04:30.506Z,82.72
2022-09-07T18:07:35.997Z,82.88
2022-09-07T18:14:16.187Z,84.01
2022-09-07T18:22:26.717Z,82.53
2022-09-07T18:25:44.987Z,82.67
2022-09-07T18:29:08.404Z,83.87
2022-09-07T18:32:17.932Z,83.19
2022-09-07T18:35:22.480Z,83.50
2022-09-07T18:38:28.425Z,83.96
2022-09-07T18:41:34.099Z,84.71
2022-09-07T18:48:03.947Z,84.03
2022-09-07T18:51:09.937Z,84.41
2022-09-07T18:54:14.551Z,83.54
2022-09-07T18:57:19.876Z,83.75
2022-09-07T19:00:25.122Z,85.39
2022-09-07T19:03:29.902Z,85.11
2022-09-07T19:09:45.024Z,82.94
2022-09-07T19:12:49.577Z,82.15
2022-09-07T19:15:54.589Z,82.55
2022-09-07T19:19:04.465Z,83.21
2022-09-07T19:22:09.203Z,83.81
2022-09-07T19:25:13.987Z,82.85
2022-09-07T19:28:20.078Z,82.72
2022-09-07T19:31:25.740Z,83.04
2022-09-07T19:34:31.886Z,83.47
2022-09-07T19:37:36.507Z,83.19
2022-09-07T19:40:41.548Z,83.65
2022-09-07T19:43:47.574Z,83.63
2022-09-07T19:46:52.537Z,84.19
2022-09-07T19:49:57.193Z,84.65
2022-09-07T19:53:01.963Z,85.14
2022-09-07T19:56:13.823Z,85.32
2022-09-07T19:59:20.620Z,85.61
2022-09-07T20:02:25.554Z,85.29
2022-09-07T20:05:32.086Z,84.73
2022-09-07T20:08:37.897Z,84.93
2022-09-07T20:11:46.253Z,84.25
2022-09-07T20:14:51.628Z,83.94
2022-09-07T20:17:56.518Z,83.59
2022-09-07T20:21:05.923Z,83.31
2022-09-07T20:24:13.443Z,83.45
2022-09-07T20:27:17.981Z,83.29
2022-09-07T20:30:25.132Z,84.29
2022-09-07T20:33:33.244Z,83.03
2022-09-07T20:36:38.001Z,83.18
2022-09-07T20:39:42.559Z,84.46
2022-09-07T20:42:46.945Z,86.09
2022-09-07T20:45:52.132Z,85.93
2022-09-07T20:48:57.107Z,85.69
2022-09-07T20:52:01.819Z,85.98
2022-09-07T20:55:07.173Z,86.48
2022-09-07T20:58:12.036Z,86.28
2022-09-07T21:01:19.247Z,86.95
2022-09-07T21:04:27.200Z,87.07
2022-09-07T21:07:31.740Z,87.11
2022-09-07T21:10:40.731Z,87.31
2022-09-07T21:13:45.348Z,83.45
2022-09-07T21:16:49.955Z,84.04
2022-09-07T21:19:55.037Z,85.88
2022-09-07T21:23:00.449Z,85.26
2022-09-07T21:26:06.742Z,82.72
2022-09-07T21:29:17.649Z,82.61
2022-09-07T21:32:22.363Z,83.71
2022-09-07T21:35:27.083Z,82.65
2022-09-07T21:38:31.933Z,79.84
2022-09-07T21:41:36.786Z,79.76
2022-09-07T21:44:44.555Z,77.98
2022-09-07T21:47:49.890Z,74.30
2022-09-07T21:51:00.031Z,71.42
2022-09-07T21:54:06.860Z,66.91
2022-09-07T21:57:20.429Z,64.23
2022-09-07T22:02:17.942Z,62.02
2022-09-07T22:04:59.377Z,61.90
2022-09-07T22:08:07.548Z,60.88
2022-09-07T22:11:21.084Z,55.96
2022-09-07T22:14:25.933Z,56.64
2022-09-07T22:17:30.303Z,59.03
2022-09-07T22:20:35.883Z,60.63
2022-09-07T22:23:56.989Z,62.32
2022-09-07T22:27:01.563Z,63.08
2022-09-07T22:30:07.858Z,64.94
2022-09-07T22:33:12.522Z,65.22
2022-09-07T22:36:20.049Z,65.63
2022-09-07T22:39:24.570Z,65.41
2022-09-07T22:42:29.071Z,67.75
2022-09-07T22:45:33.862Z,67.99
2022-09-07T22:48:39.617Z,67.83
2022-09-07T22:51:45.233Z,67.26
2022-09-07T22:54:49.992Z,68.60
2022-09-07T22:57:54.879Z,68.52
2022-09-07T23:01:00.492Z,68.97
2022-09-07T23:04:05.510Z,69.19
2022-09-07T23:07:10.416Z,69.11
2022-09-07T23:10:14.917Z,69.70
2022-09-07T23:13:19.622Z,69.05
2022-09-07T23:16:24.848Z,68.92
2022-09-07T23:19:29.402Z,69.92
2022-09-07T23:22:34.136Z,71.37
2022-09-07T23:25:40.128Z,71.67
2022-09-07T23:28:44.648Z,70.09
2022-09-07T23:31:49.403Z,68.93
2022-09-07T23:34:54.092Z,69.02
2022-09-07T23:37:58.622Z,68.88
2022-09-07T23:41:03.347Z,68.91
2022-09-07T23:44:07.994Z,70.69
2022-09-07T23:47:12.975Z,70.81
2022-09-07T23:50:17.764Z,71.16
2022-09-07T23:53:23.301Z,71.13
2022-09-07T23:56:27.364Z,73.29
2022-09-07T23:59:34.726Z,70.69
